Time;durP1;ratioP1;P1;durP2;ratioP2;P2;SDS_P1;SDS_P2;PMS_P1;PMS_P2;Temp;Humidity;BMP_temperature;BMP_pressure;BME280_temperature;BME280_humidity;BME280_pressure;Samples;Min_cycle;Max_cycle;Signal;HPM_P1;HPM_P2
2022/07/21 00:01:04;;;;;;;17.92;13.85;;;;;;;22.14;100.00;101719.91;4889950;29;20067;-63
2022/07/21 00:03:30;;;;;;;16.27;13.05;;;;;;;22.18;100.00;101707.78;4884856;29;20052;-62
2022/07/21 00:05:57;;;;;;;21.00;15.68;;;;;;;22.09;100.00;101715.16;4891480;29;20058;-62
2022/07/21 00:08:23;;;;;;;16.60;14.77;;;;;;;22.08;100.00;101721.53;4885840;29;20052;-61
2022/07/21 00:10:50;;;;;;;16.88;13.95;;;;;;;22.03;100.00;101737.34;4891625;29;20060;-62
2022/07/21 00:13:16;;;;;;;17.35;15.48;;;;;;;22.04;100.00;101732.81;4887183;29;20052;-63
2022/07/21 00:15:43;;;;;;;18.10;15.05;;;;;;;22.03;100.00;101744.50;4882116;29;20055;-62
2022/07/21 00:18:09;;;;;;;19.35;15.88;;;;;;;22.03;100.00;101741.84;4892004;29;20060;-63
2022/07/21 00:20:36;;;;;;;18.42;15.52;;;;;;;21.96;100.00;101746.34;4883965;29;20060;-62
2022/07/21 00:23:03;;;;;;;16.95;15.13;;;;;;;21.90;100.00;101745.31;4892488;29;20056;-60
2022/07/21 00:25:30;;;;;;;20.98;15.70;;;;;;;21.91;100.00;101744.25;4884978;29;20143;-62
2022/07/21 00:28:02;;;;;;;18.08;13.93;;;;;;;21.87;100.00;101732.34;4885267;29;20053;-62
2022/07/21 00:30:28;;;;;;;16.52;14.82;;;;;;;21.78;100.00;101745.03;4891452;29;20059;-62
2022/07/21 00:32:55;;;;;;;18.42;15.48;;;;;;;21.83;100.00;101747.09;4887296;29;20060;-62
2022/07/21 00:35:22;;;;;;;16.98;14.73;;;;;;;21.83;100.00;101739.09;4892263;29;20048;-63
2022/07/21 00:37:48;;;;;;;18.05;14.82;;;;;;;21.81;100.00;101738.47;4890183;29;20059;-62
2022/07/21 00:40:15;;;;;;;18.40;15.98;;;;;;;21.81;100.00;101736.63;4890599;29;20509;-62
2022/07/21 00:42:43;;;;;;;19.53;14.37;;;;;;;21.81;100.00;101725.13;4885061;29;20433;-60
2022/07/21 00:45:10;;;;;;;17.95;16.02;;;;;;;21.77;100.00;101726.53;4894680;29;20064;-62
2022/07/21 00:47:37;;;;;;;17.60;14.65;;;;;;;21.81;100.00;101725.94;4896535;29;20072;-62
2022/07/21 00:50:08;;;;;;;16.73;14.93;;;;;;;21.81;100.00;101733.13;4890452;29;20052;-61
2022/07/21 00:52:35;;;;;;;15.68;13.57;;;;;;;21.76;100.00;101731.06;4895557;29;20056;-61
2022/07/21 00:55:02;;;;;;;18.38;13.43;;;;;;;21.74;100.00;101722.44;4884287;29;20051;-63
2022/07/21 00:57:28;;;;;;;17.13;12.27;;;;;;;21.72;100.00;101724.47;4889704;29;20075;-61
2022/07/21 00:59:55;;;;;;;14.20;12.05;;;;;;;21.73;100.00;101728.78;4890307;29;20060;-61
2022/07/21 01:02:21;;;;;;;16.35;12.32;;;;;;;21.71;100.00;101728.16;4895041;29;20063;-62
2022/07/21 01:04:47;;;;;;;17.95;13.18;;;;;;;21.65;100.00;101726.28;4895441;29;20060;-61
2022/07/21 01:07:15;;;;;;;14.73;13.00;;;;;;;21.54;100.00;101708.97;4886376;29;20104;-63
2022/07/21 01:09:42;;;;;;;13.60;12.05;;;;;;;21.50;100.00;101705.03;4890478;29;20087;-62
2022/07/21 01:12:09;;;;;;;15.90;13.05;;;;;;;21.45;100.00;101702.97;4888869;29;20139;-62
2022/07/21 01:14:36;;;;;;;15.40;13.23;;;;;;;21.45;100.00;101700.31;4895372;29;20063;-61
2022/07/21 01:17:03;;;;;;;15.68;13.85;;;;;;;21.43;100.00;101702.34;4889684;29;20068;-62
2022/07/21 01:19:29;;;;;;;17.23;13.95;;;;;;;21.45;100.00;101699.50;4895065;29;20052;-61
2022/07/21 01:21:56;;;;;;;15.95;13.57;;;;;;;21.45;100.00;101696.81;4885712;29;20045;-61
2022/07/21 01:24:22;;;;;;;17.63;13.57;;;;;;;21.45;100.00;101699.50;4889692;29;20056;-62
2022/07/21 01:26:52;;;;;;;14.50;12.63;;;;;;;21.42;100.00;101702.50;4894735;29;20052;-63
2022/07/21 01:29:19;;;;;;;14.27;11.88;;;;;;;21.40;100.00;101705.38;4887636;29;20376;-62
2022/07/21 01:31:48;;;;;;;13.60;12.17;;;;;;;21.39;100.00;101702.94;4894646;29;20052;-62
2022/07/21 01:34:15;;;;;;;15.20;13.25;;;;;;;21.40;100.00;101702.69;4888185;29;20048;-59
2022/07/21 01:36:41;;;;;;;17.87;13.13;;;;;;;21.45;100.00;101707.50;4872142;29;20440;-62
2022/07/21 01:41:53;;;;;;;17.27;13.40;;;;;;;21.47;100.00;101706.28;4894841;29;20065;-62
2022/07/21 01:44:20;;;;;;;16.73;14.13;;;;;;;21.41;100.00;101709.69;4894183;29;20062;-63
2022/07/21 01:46:49;;;;;;;15.98;13.95;;;;;;;21.47;100.00;101713.47;4888184;29;20484;-62
2022/07/21 01:49:17;;;;;;;15.68;12.77;;;;;;;21.48;100.00;101712.44;4889604;29;20062;-62
2022/07/21 01:51:44;;;;;;;15.38;12.80;;;;;;;21.38;100.00;101712.75;4883252;29;20059;-62
2022/07/21 01:54:11;;;;;;;18.17;16.08;;;;;;;21.34;100.00;101711.50;4892852;29;20419;-62
2022/07/21 01:56:38;;;;;;;20.30;14.38;;;;;;;21.38;100.00;101701.25;4887942;29;20060;-62
2022/07/21 01:59:06;;;;;;;18.25;14.68;;;;;;;21.34;100.00;101695.50;4893979;29;20088;-62
2022/07/21 02:01:33;;;;;;;16.42;14.50;;;;;;;21.27;100.00;101703.47;4895071;29;20147;-62
2022/07/21 02:04:04;;;;;;;17.55;15.68;;;;;;;21.29;100.00;101698.75;4882153;29;20056;-62
2022/07/21 02:06:31;;;;;;;16.77;15.02;;;;;;;21.23;100.00;101698.69;4883438;29;20076;-62
2022/07/21 02:08:58;;;;;;;20.85;15.88;;;;;;;21.05;100.00;101693.88;4888070;29;20048;-62
2022/07/21 02:11:25;;;;;;;17.98;15.35;;;;;;;21.03;100.00;101687.91;4893340;29;20056;-60
2022/07/21 02:13:51;;;;;;;17.90;14.55;;;;;;;20.97;100.00;101686.84;4868437;29;20044;-61
2022/07/21 02:16:18;;;;;;;21.60;15.65;;;;;;;20.99;100.00;101683.97;4892938;29;20053;-62
2022/07/21 02:18:45;;;;;;;16.80;15.00;;;;;;;20.91;100.00;101682.28;4892205;29;20061;-61
2022/07/21 02:21:14;;;;;;;17.88;15.50;;;;;;;20.88;100.00;101680.03;4886756;29;20808;-61
2022/07/21 02:23:41;;;;;;;19.83;16.00;;;;;;;20.90;100.00;101683.31;4892207;29;20063;-60
2022/07/21 02:26:07;;;;;;;19.90;15.63;;;;;;;20.92;100.00;101691.94;4882506;29;20143;-61
2022/07/21 02:28:34;;;;;;;18.52;16.45;;;;;;;20.95;100.00;101675.53;4886535;29;20488;-60
2022/07/21 02:31:00;;;;;;;20.38;15.77;;;;;;;20.91;100.00;101682.28;4879910;29;20048;-61
2022/07/21 02:33:27;;;;;;;20.60;16.33;;;;;;;20.88;100.00;101683.50;4890672;29;20869;-62
2022/07/21 02:35:53;;;;;;;17.88;16.05;;;;;;;20.91;100.00;101680.47;4890283;29;20088;-62
2022/07/21 02:38:20;;;;;;;20.15;17.23;;;;;;;20.86;100.00;101690.06;4881932;29;20052;-62
2022/07/21 02:40:47;;;;;;;18.90;16.90;;;;;;;20.84;100.00;101690.25;4890887;29;20410;-62
2022/07/21 02:43:19;;;;;;;19.45;17.42;;;;;;;20.84;100.00;101695.56;4877491;29;20102;-63
2022/07/21 02:45:45;;;;;;;22.23;16.65;;;;;;;20.82;100.00;101686.94;4889508;29;20056;-62
2022/07/21 02:48:13;;;;;;;19.25;16.55;;;;;;;20.83;100.00;101685.91;4882881;29;20599;-62
2022/07/21 02:50:42;;;;;;;18.53;16.57;;;;;;;20.85;100.00;101688.38;4874752;29;20056;-62
2022/07/21 02:53:13;;;;;;;21.90;18.90;;;;;;;20.80;100.00;101682.84;4879620;29;20067;-64
2022/07/21 02:55:43;;;;;;;22.67;17.58;;;;;;;20.77;100.00;101686.69;4861825;29;20261;-61
2022/07/21 02:58:16;;;;;;;22.20;18.63;;;;;;;20.81;100.00;101676.47;4885242;29;20053;-62
2022/07/21 03:00:55;;;;;;;24.35;19.17;;;;;;;20.83;100.00;101683.25;4884356;29;20067;-61
2022/07/21 03:03:23;;;;;;;21.30;18.53;;;;;;;20.83;100.00;101680.59;4841260;29;1418487;-61
2022/07/21 03:05:50;;;;;;;;;;;;;;;20.80;100.00;101688.16;4881879;29;20064;-61
2022/07/21 03:52:09;;;;;;;21.23;17.90;;;;;;;20.16;100.00;101695.13;3375545;23;20052;-63
2022/07/21 03:54:35;;;;;;;20.38;17.88;;;;;;;20.09;100.00;101692.38;4885408;29;20497;-60
2022/07/21 03:57:02;;;;;;;20.48;17.88;;;;;;;20.05;100.00;101687.59;4875670;29;20122;-60
2022/07/21 03:59:28;;;;;;;20.55;16.83;;;;;;;20.09;100.00;101683.56;4882168;29;20064;-61
2022/07/21 04:01:54;;;;;;;21.17;18.42;;;;;;;20.05;100.00;101684.94;4874535;29;20052;-61
2022/07/21 04:04:21;;;;;;;23.10;19.27;;;;;;;20.06;100.00;101687.44;4875086;29;20072;-61
2022/07/21 04:06:47;;;;;;;22.40;18.70;;;;;;;20.17;100.00;101685.28;4875877;29;20076;-60
2022/07/21 04:09:14;;;;;;;21.77;19.20;;;;;;;20.12;100.00;101683.19;4886143;29;20059;-61
2022/07/21 04:11:41;;;;;;;25.52;19.95;;;;;;;20.08;100.00;101688.06;4887683;29;20053;-61
2022/07/21 04:14:08;;;;;;;23.23;17.95;;;;;;;20.13;100.00;101683.00;4883366;29;20438;-61
2022/07/21 04:16:34;;;;;;;22.38;19.98;;;;;;;20.11;100.00;101684.19;4881612;29;20057;-61
2022/07/21 04:19:01;;;;;;;23.23;20.17;;;;;;;20.08;100.00;101676.59;4879939;29;20056;-61
2022/07/21 04:21:27;;;;;;;24.15;19.55;;;;;;;20.16;100.00;101681.78;4882213;29;20064;-61
2022/07/21 04:23:54;;;;;;;20.92;18.48;;;;;;;20.00;100.00;101690.03;4887619;29;20056;-61
2022/07/21 04:26:20;;;;;;;22.45;18.88;;;;;;;20.02;100.00;101688.81;4884416;29;20051;-59
2022/07/21 04:28:47;;;;;;;22.70;19.90;;;;;;;20.08;100.00;101684.59;4882208;29;20584;-63
2022/07/21 04:31:13;;;;;;;22.45;19.83;;;;;;;20.10;100.00;101679.88;4882127;29;20056;-62
2022/07/21 04:33:39;;;;;;;25.52;20.35;;;;;;;20.01;100.00;101681.00;4878746;29;20059;-61
2022/07/21 04:36:06;;;;;;;25.75;21.10;;;;;;;19.99;100.00;101683.84;4882475;29;20056;-60
2022/07/21 04:38:33;;;;;;;23.55;19.38;;;;;;;20.05;100.00;101688.47;4887995;29;20056;-63
2022/07/21 04:40:59;;;;;;;23.50;20.48;;;;;;;20.02;100.00;101690.66;4885225;29;20053;-61
2022/07/21 04:43:26;;;;;;;24.58;20.27;;;;;;;20.06;100.00;101689.28;4882837;29;20056;-62
2022/07/21 04:45:52;;;;;;;25.33;20.85;;;;;;;20.04;100.00;101683.31;4884165;29;20665;-61
2022/07/21 04:48:19;;;;;;;25.95;21.17;;;;;;;20.08;100.00;101690.72;4890014;29;20092;-61
2022/07/21 04:50:45;;;;;;;29.17;21.13;;;;;;;20.05;100.00;101691.13;4889140;29;20055;-61
2022/07/21 04:53:12;;;;;;;25.90;20.05;;;;;;;20.02;100.00;101702.13;4863253;29;20057;-58
2022/07/21 04:55:38;;;;;;;27.05;19.73;;;;;;;20.00;100.00;101692.69;4883461;29;20052;-61
2022/07/21 04:58:04;;;;;;;24.98;20.88;;;;;;;20.03;100.00;101693.16;4887645;29;20060;-62
2022/07/21 05:00:31;;;;;;;26.15;20.40;;;;;;;20.10;100.00;101685.22;4871940;29;20053;-62
2022/07/21 05:02:57;;;;;;;29.85;20.00;;;;;;;20.11;100.00;101686.84;4882734;29;20049;-62
2022/07/21 05:05:24;;;;;;;27.75;21.90;;;;;;;19.95;100.00;101680.75;4882071;29;20056;-62
2022/07/21 05:07:50;;;;;;;26.00;20.83;;;;;;;20.01;100.00;101676.50;4878474;29;20456;-62
2022/07/21 05:10:18;;;;;;;26.48;22.00;;;;;;;20.03;100.00;101682.50;4865819;29;20767;-61
2022/07/21 05:12:45;;;;;;;29.02;22.48;;;;;;;19.99;100.00;101680.38;4878827;29;20554;-61
2022/07/21 05:15:12;;;;;;;27.13;21.97;;;;;;;20.04;100.00;101672.66;4882522;29;20080;-61
2022/07/21 05:17:40;;;;;;;29.88;23.35;;;;;;;19.98;100.00;101674.22;4883464;29;20049;-61
2022/07/21 05:20:07;;;;;;;27.73;22.02;;;;;;;20.05;100.00;101676.97;4887303;29;20052;-61
2022/07/21 05:22:34;;;;;;;28.53;23.13;;;;;;;19.89;100.00;101667.38;4891926;29;20509;-61
2022/07/21 05:25:00;;;;;;;33.17;23.63;;;;;;;19.90;100.00;101659.19;4887167;29;20135;-62
2022/07/21 05:27:27;;;;;;;35.92;25.10;;;;;;;19.81;100.00;101667.47;4886027;29;20049;-61
2022/07/21 05:29:54;;;;;;;34.25;25.15;;;;;;;19.81;100.00;101660.31;4885404;29;20913;-61
2022/07/21 05:32:21;;;;;;;28.50;23.70;;;;;;;19.75;100.00;101661.06;4885966;29;20056;-61
2022/07/21 05:34:47;;;;;;;30.27;23.58;;;;;;;19.65;100.00;101668.50;4885900;29;20094;-59
2022/07/21 05:37:14;;;;;;;32.30;25.35;;;;;;;19.68;100.00;101660.97;4886060;29;20460;-61
2022/07/21 05:39:40;;;;;;;32.67;25.98;;;;;;;19.65;100.00;101653.34;4885634;29;20056;-61
2022/07/21 05:42:06;;;;;;;35.22;24.80;;;;;;;19.73;100.00;101657.75;4891136;29;20561;-59
2022/07/21 05:44:33;;;;;;;31.88;25.40;;;;;;;19.73;100.00;101655.09;4889590;29;20061;-61
2022/07/21 05:46:59;;;;;;;33.03;25.10;;;;;;;19.79;100.00;101651.69;4885469;29;20051;-60
2022/07/21 05:49:26;;;;;;;32.72;26.00;;;;;;;19.86;100.00;101654.44;4891764;29;20461;-60
2022/07/21 05:51:52;;;;;;;36.55;27.92;;;;;;;19.74;100.00;101664.75;4885327;29;20053;-61
2022/07/21 05:54:19;;;;;;;36.70;26.00;;;;;;;19.80;100.00;101660.50;4881657;29;20052;-61
2022/07/21 05:56:45;;;;;;;36.72;29.30;;;;;;;19.72;100.00;101643.63;4882969;29;20056;-60
2022/07/21 05:59:12;;;;;;;36.00;30.05;;;;;;;19.69;100.00;101653.78;4884440;29;20060;-62
2022/07/21 06:01:38;;;;;;;42.78;32.72;;;;;;;19.69;100.00;101641.31;4879675;29;20060;-61
2022/07/21 06:04:04;;;;;;;42.20;30.60;;;;;;;19.64;100.00;101642.88;4885822;29;20048;-61
2022/07/21 06:06:31;;;;;;;36.30;28.02;;;;;;;19.64;100.00;101640.22;4889676;29;20060;-61
2022/07/21 06:08:57;;;;;;;35.28;28.75;;;;;;;19.64;100.00;101638.41;4886840;29;20055;-61
2022/07/21 06:11:24;;;;;;;38.42;30.42;;;;;;;19.69;100.00;101651.94;4879010;29;20048;-59
2022/07/21 06:13:50;;;;;;;35.60;29.92;;;;;;;19.71;100.00;101649.94;4878932;29;20049;-63
2022/07/21 06:16:17;;;;;;;36.00;28.77;;;;;;;19.83;100.00;101657.47;4875146;29;20048;-59
2022/07/21 06:18:43;;;;;;;32.53;26.35;;;;;;;19.85;100.00;101650.13;4882028;29;20130;-61
2022/07/21 06:21:10;;;;;;;37.78;28.95;;;;;;;19.74;100.00;101657.59;4886419;29;20079;-60
2022/07/21 06:23:36;;;;;;;35.45;27.55;;;;;;;19.65;100.00;101658.66;4886385;29;20053;-60
2022/07/21 06:26:03;;;;;;;38.10;27.65;;;;;;;19.58;100.00;101665.72;4889927;29;21862;-60
2022/07/21 06:28:29;;;;;;;37.25;27.00;;;;;;;19.58;100.00;101656.94;4886501;29;20048;-60
2022/07/21 06:30:56;;;;;;;34.28;26.45;;;;;;;19.62;100.00;101661.72;4883668;29;20975;-60
2022/07/21 06:33:22;;;;;;;34.53;27.27;;;;;;;19.67;100.00;101661.13;4884748;29;20056;-60
2022/07/21 06:35:49;;;;;;;35.58;25.10;;;;;;;19.74;100.00;101670.06;4886405;29;20087;-61
2022/07/21 06:38:15;;;;;;;35.08;26.80;;;;;;;19.72;100.00;101669.44;4891165;29;20052;-61
2022/07/21 06:40:42;;;;;;;33.22;25.65;;;;;;;19.66;100.00;101670.13;4890062;29;20048;-63
2022/07/21 06:43:09;;;;;;;31.33;25.77;;;;;;;19.74;100.00;101670.06;4890181;29;20864;-61
2022/07/21 06:45:55;;;;;;;36.58;26.60;;;;;;;19.79;100.00;101682.81;4886024;29;20624;-62
2022/07/21 06:48:22;;;;;;;33.03;26.40;;;;;;;19.88;100.00;101679.03;4882173;29;20059;-62
2022/07/21 06:50:49;;;;;;;34.55;28.58;;;;;;;19.81;100.00;101680.78;4883931;29;20053;-63
2022/07/21 18:48:24;;;;;;;3.08;0.90;;;;;;;18.72;100.00;101957.63;4747852;30;20063;-60
2022/07/21 18:51:39;;;;;;;3.13;0.90;;;;;;;18.68;100.00;101958.94;4742072;30;20561;-63
2022/07/21 18:54:11;;;;;;;3.60;0.85;;;;;;;18.62;100.00;101963.16;4747770;30;20051;-62
2022/07/21 18:56:39;;;;;;;4.07;1.10;;;;;;;18.64;100.00;101962.97;4755042;30;20063;-60
2022/07/21 18:59:06;;;;;;;2.58;0.93;;;;;;;18.66;100.00;101971.59;4758232;30;20999;-61
2022/07/21 19:01:32;;;;;;;2.67;1.00;;;;;;;18.68;100.00;101969.59;4759822;30;20056;-60
2022/07/21 19:03:59;;;;;;;4.30;1.00;;;;;;;18.60;100.00;101977.59;4757940;29;20158;-61
2022/07/21 19:06:25;;;;;;;2.42;1.20;;;;;;;18.49;100.00;101978.81;4758275;30;20066;-66
2022/07/21 19:08:52;;;;;;;4.10;1.10;;;;;;;18.51;100.00;101974.97;4755029;30;20056;-66
2022/07/21 19:11:18;;;;;;;5.57;1.30;;;;;;;18.45;100.00;101980.16;4764234;30;20055;-65
2022/07/21 19:13:45;;;;;;;4.13;1.20;;;;;;;18.43;100.00;101980.31;4753867;30;20059;-61
2022/07/21 19:16:12;;;;;;;5.47;1.20;;;;;;;18.44;100.00;101983.78;4753620;30;20060;-61
2022/07/21 19:18:39;;;;;;;3.85;1.00;;;;;;;18.41;100.00;101990.28;4760088;30;20060;-61
2022/07/21 19:21:05;;;;;;;4.78;1.17;;;;;;;18.39;100.00;101992.28;4750054;30;20067;-61
2022/07/21 19:23:35;;;;;;;4.07;1.77;;;;;;;18.37;100.00;101994.28;4742679;30;20537;-61
2022/07/21 19:26:02;;;;;;;3.92;1.20;;;;;;;18.29;100.00;101999.59;4751072;30;20480;-60
2022/07/21 19:28:29;;;;;;;4.38;1.20;;;;;;;18.30;100.00;101999.41;4751258;30;20066;-59
2022/07/21 19:31:01;;;;;;;4.00;1.38;;;;;;;18.24;100.00;102002.75;4745408;30;20070;-59
2022/07/21 19:33:28;;;;;;;10.20;1.95;;;;;;;18.16;100.00;102014.19;4746123;30;20173;-59
2022/07/21 19:35:55;;;;;;;7.55;1.75;;;;;;;18.08;100.00;102010.75;4754316;30;20063;-60
2022/07/21 19:38:21;;;;;;;4.30;1.83;;;;;;;18.02;100.00;102022.84;4744794;30;20064;-60
2022/07/21 19:40:48;;;;;;;5.95;1.50;;;;;;;17.96;100.00;102021.69;4749675;30;20064;-60
2022/07/21 19:43:18;;;;;;;5.57;1.88;;;;;;;17.92;100.00;102019.53;4753781;30;20566;-60
2022/07/21 19:45:45;;;;;;;8.15;1.98;;;;;;;17.83;100.00;102017.84;4744579;30;20549;-61
2022/07/21 19:48:12;;;;;;;5.97;1.70;;;;;;;17.85;100.00;102029.16;4746313;30;20055;-60
2022/07/21 19:50:44;;;;;;;9.05;1.92;;;;;;;17.81;100.00;102030.44;4747249;30;20484;-60
2022/07/21 19:53:10;;;;;;;7.22;1.73;;;;;;;17.81;100.00;102033.09;4747837;30;20071;-60
2022/07/21 19:55:37;;;;;;;8.00;2.03;;;;;;;17.81;100.00;102033.09;4744999;30;20292;-60
2022/07/21 19:58:03;;;;;;;6.88;1.73;;;;;;;17.79;100.00;102026.13;4753952;30;20067;-61
2022/07/21 20:00:30;;;;;;;5.88;2.10;;;;;;;17.74;100.00;102035.59;4748069;30;20066;-60
2022/07/21 20:02:56;;;;;;;6.03;1.85;;;;;;;17.79;100.00;102036.72;4745697;29;20525;-62
2022/07/21 20:05:23;;;;;;;6.75;1.70;;;;;;;17.78;100.00;102035.09;4748528;30;20067;-63
2022/07/21 20:07:49;;;;;;;9.05;2.03;;;;;;;17.69;100.00;102040.56;4738470;30;20064;-61
2022/07/21 20:10:15;;;;;;;7.53;2.08;;;;;;;17.73;100.00;102040.03;4752964;30;20657;-62
2022/07/21 20:12:42;;;;;;;9.80;1.92;;;;;;;17.69;100.00;102037.91;4750440;30;20064;-61
2022/07/21 20:15:09;;;;;;;6.80;2.10;;;;;;;17.70;100.00;102047.50;4740396;30;20083;-60
2022/07/21 20:17:36;;;;;;;9.23;2.13;;;;;;;17.66;100.00;102051.47;4757886;30;20090;-61
2022/07/21 20:20:08;;;;;;;8.38;2.10;;;;;;;17.73;100.00;102050.66;4737135;30;20153;-58
2022/07/21 20:22:35;;;;;;;6.78;1.95;;;;;;;17.77;100.00;102044.03;4755130;30;20079;-61
2022/07/21 20:25:01;;;;;;;6.80;1.95;;;;;;;17.76;100.00;102046.88;4733106;30;20087;-61
2022/07/21 20:27:28;;;;;;;10.70;2.30;;;;;;;17.77;100.00;102035.25;4751332;30;20535;-59
2022/07/21 20:29:54;;;;;;;7.30;2.10;;;;;;;17.76;100.00;102041.56;4747634;30;20056;-60
2022/07/21 20:32:20;;;;;;;7.40;2.33;;;;;;;17.77;100.00;102041.38;4743481;30;20430;-60
2022/07/21 20:34:47;;;;;;;10.98;2.10;;;;;;;17.74;100.00;102041.72;4748092;30;20064;-62
2022/07/21 20:37:13;;;;;;;9.77;2.25;;;;;;;17.75;100.00;102045.19;4741957;30;20098;-61
2022/07/21 20:39:40;;;;;;;5.85;1.90;;;;;;;17.77;100.00;102043.22;4746176;30;20060;-62
2022/07/21 20:42:27;;;;;;;8.43;2.35;;;;;;;17.77;100.00;102048.50;4735618;30;20063;-61
2022/07/21 20:44:54;;;;;;;10.13;2.42;;;;;;;17.73;100.00;102052.50;4746698;30;20059;-61
2022/07/21 20:47:20;;;;;;;10.32;2.15;;;;;;;17.68;100.00;102063.59;4744890;30;20064;-61
2022/07/21 20:49:46;;;;;;;11.10;2.38;;;;;;;17.66;100.00;102065.59;4734426;30;20068;-60
2022/07/21 20:52:13;;;;;;;14.18;2.50;;;;;;;17.62;100.00;102074.88;4749611;30;20095;-61
2022/07/21 20:54:40;;;;;;;9.60;2.13;;;;;;;17.58;100.00;102071.72;4746820;30;20067;-61
2022/07/21 20:57:06;;;;;;;11.13;2.40;;;;;;;17.61;100.00;102067.91;4753314;30;20066;-61
2022/07/21 20:59:38;;;;;;;11.95;2.70;;;;;;;17.62;100.00;102072.22;4748666;30;20067;-62
2022/07/21 21:02:04;;;;;;;10.88;2.88;;;;;;;17.58;100.00;102068.22;4755632;30;20241;-62
2022/07/21 21:04:31;;;;;;;8.93;2.42;;;;;;;17.69;100.00;102070.56;4759142;30;20064;-63
2022/07/21 21:06:58;;;;;;;6.43;2.22;;;;;;;17.68;100.00;102068.91;4746490;30;20604;-63
2022/07/21 21:09:24;;;;;;;10.52;2.30;;;;;;;17.71;100.00;102078.38;4747702;30;20512;-63
2022/07/21 21:11:50;;;;;;;7.45;2.45;;;;;;;17.69;100.00;102072.38;4741589;30;20082;-63
2022/07/21 21:14:17;;;;;;;9.00;2.55;;;;;;;17.68;100.00;102076.88;4755209;30;20060;-64
2022/07/21 21:16:43;;;;;;;10.32;2.28;;;;;;;17.71;100.00;102076.53;4757803;30;20070;-63
2022/07/21 21:19:10;;;;;;;12.10;2.88;;;;;;;17.72;100.00;102080.00;4762235;30;20059;-62
2022/07/21 21:21:37;;;;;;;11.15;2.55;;;;;;;17.70;100.00;102082.84;4756387;30;20085;-63
2022/07/21 21:24:04;;;;;;;10.85;3.15;;;;;;;17.68;100.00;102081.31;4752025;30;20068;-62
2022/07/21 21:26:30;;;;;;;10.77;2.80;;;;;;;17.60;100.00;102090.09;4755498;30;20055;-62
2022/07/21 21:28:57;;;;;;;13.32;3.28;;;;;;;17.56;100.00;102080.81;4756807;29;20589;-62
2022/07/21 21:31:24;;;;;;;14.85;3.08;;;;;;;17.45;100.00;102081.94;4762395;30;20072;-62
2022/07/21 21:33:50;;;;;;;11.45;3.33;;;;;;;17.45;100.00;102086.44;4741537;30;20063;-61
2022/07/21 21:36:18;;;;;;;10.02;3.40;;;;;;;17.49;100.00;102083.28;4735036;30;20399;-61
2022/07/21 21:38:44;;;;;;;15.93;4.13;;;;;;;17.49;100.00;102079.81;4733243;30;20090;-61
2022/07/21 21:41:11;;;;;;;10.95;3.05;;;;;;;17.49;100.00;102082.47;4723402;30;20344;-62
2022/07/21 21:43:37;;;;;;;12.30;3.08;;;;;;;17.51;100.00;102088.44;4737387;30;20486;-62
2022/07/21 21:46:08;;;;;;;9.85;3.03;;;;;;;17.52;100.00;102090.94;4736806;29;20064;-61
2022/07/21 21:48:38;;;;;;;9.73;3.10;;;;;;;17.53;100.00;102095.22;4734970;30;20083;-61
2022/07/21 21:51:07;;;;;;;8.68;2.60;;;;;;;17.48;100.00;102088.75;4726032;30;20067;-61
2022/07/21 21:53:34;;;;;;;9.10;2.80;;;;;;;17.42;100.00;102092.88;4734683;30;20090;-63
2022/07/21 21:56:01;;;;;;;18.00;3.20;;;;;;;17.36;100.00;102094.34;4733150;30;20052;-64
2022/07/21 21:58:27;;;;;;;11.20;2.95;;;;;;;17.37;100.00;102103.16;4717672;30;20066;-63
2022/07/21 22:00:54;;;;;;;9.05;2.55;;;;;;;17.31;100.00;102098.47;4732263;30;20089;-61
2022/07/21 22:03:20;;;;;;;11.63;2.95;;;;;;;17.29;100.00;102092.47;4726523;30;20056;-62
2022/07/21 22:05:47;;;;;;;12.18;2.70;;;;;;;17.30;100.00;102102.94;4722716;30;20477;-60
2022/07/21 22:08:13;;;;;;;10.57;2.60;;;;;;;17.36;100.00;102104.13;4721540;30;20540;-61
2022/07/21 22:10:40;;;;;;;7.28;2.67;;;;;;;17.30;100.00;102104.75;4738488;30;20056;-60
2022/07/21 22:13:06;;;;;;;14.70;2.45;;;;;;;17.32;100.00;102113.38;4734781;30;20686;-60
2022/07/21 22:15:33;;;;;;;6.93;2.00;;;;;;;17.33;100.00;102112.41;4729888;30;20239;-61
2022/07/21 22:17:59;;;;;;;5.32;2.40;;;;;;;17.34;100.00;102106.09;4750743;30;20060;-60
2022/07/21 22:20:26;;;;;;;7.82;1.90;;;;;;;17.34;100.00;102117.53;4730038;30;20060;-60
2022/07/21 22:22:53;;;;;;;9.13;2.20;;;;;;;17.36;100.00;102112.06;4731998;30;20068;-60
2022/07/21 22:25:19;;;;;;;10.02;2.45;;;;;;;17.36;100.00;102109.41;4727195;30;20060;-60
2022/07/21 22:27:46;;;;;;;6.68;2.20;;;;;;;17.34;100.00;102117.53;4728220;30;20071;-60
2022/07/21 22:30:12;;;;;;;8.95;2.15;;;;;;;17.31;100.00;102119.69;4727578;30;20068;-59
2022/07/21 22:32:39;;;;;;;6.47;2.30;;;;;;;17.33;100.00;102126.50;4723865;30;20074;-60
2022/07/21 22:35:07;;;;;;;16.05;2.58;;;;;;;17.37;100.00;102124.34;4731774;30;20060;-60
2022/07/21 22:37:33;;;;;;;14.05;2.38;;;;;;;17.33;100.00;102121.19;4727543;30;20068;-61
2022/07/21 22:39:59;;;;;;;14.20;2.80;;;;;;;17.32;100.00;102116.88;4739115;30;20505;-60
2022/07/21 22:42:26;;;;;;;13.07;2.30;;;;;;;17.28;100.00;102122.66;4735695;30;20067;-58
2022/07/21 22:44:53;;;;;;;9.70;2.15;;;;;;;17.26;100.00;102122.81;4733469;30;20060;-59
2022/07/21 22:47:19;;;;;;;8.65;2.30;;;;;;;17.24;100.00;102121.31;4739362;30;20060;-59
2022/07/21 22:49:46;;;;;;;15.65;2.80;;;;;;;17.20;100.00;102134.06;4733164;30;20060;-61
2022/07/21 22:52:12;;;;;;;7.72;2.90;;;;;;;17.09;100.00;102119.25;4741874;30;20411;-63
2022/07/21 22:54:39;;;;;;;11.13;3.05;;;;;;;17.11;100.00;102125.25;4746353;30;20082;-63
2022/07/21 22:57:05;;;;;;;10.25;2.97;;;;;;;17.13;100.00;102125.06;4745799;30;20061;-61
2022/07/21 22:59:32;;;;;;;8.77;2.88;;;;;;;17.09;100.00;102123.72;4743000;30;20052;-60
2022/07/21 23:01:58;;;;;;;9.80;3.15;;;;;;;17.15;100.00;102138.97;4730224;30;20064;-61
2022/07/21 23:04:25;;;;;;;9.85;3.03;;;;;;;17.12;100.00;102140.13;4738283;30;20052;-61
2022/07/21 23:06:51;;;;;;;12.07;3.20;;;;;;;17.06;100.00;102135.47;4733713;30;20064;-61
2022/07/21 23:09:17;;;;;;;12.77;3.40;;;;;;;17.02;100.00;102139.44;4742949;30;20056;-61
2022/07/21 23:11:44;;;;;;;7.32;2.83;;;;;;;17.00;100.00;102130.81;4737364;30;20067;-56
2022/07/21 23:14:10;;;;;;;10.05;2.67;;;;;;;17.01;100.00;102137.75;4749693;30;20068;-60
2022/07/21 23:16:37;;;;;;;11.30;3.67;;;;;;;16.97;100.00;102137.25;4747788;30;20102;-59
2022/07/21 23:19:03;;;;;;;10.45;3.00;;;;;;;16.94;100.00;102142.03;4734544;30;20592;-60
2022/07/21 23:21:31;;;;;;;12.68;3.25;;;;;;;16.89;100.00;102137.19;4747718;30;20623;-61
2022/07/21 23:23:58;;;;;;;15.02;3.78;;;;;;;16.94;100.00;102142.84;4738115;30;20098;-59
2022/07/21 23:26:25;;;;;;;17.60;3.42;;;;;;;16.90;100.00;102141.50;4744272;30;20056;-59
2022/07/21 23:28:51;;;;;;;14.02;3.90;;;;;;;16.90;100.00;102146.81;4743455;30;20060;-62
2022/07/21 23:31:18;;;;;;;14.15;2.95;;;;;;;16.84;100.00;102128.03;4746728;30;20059;-60
2022/07/21 23:33:45;;;;;;;12.38;3.25;;;;;;;16.90;100.00;102132.72;4741604;30;20467;-61
2022/07/21 23:36:12;;;;;;;9.27;3.15;;;;;;;16.90;100.00;102128.25;4730138;30;20064;-61
2022/07/21 23:38:39;;;;;;;9.48;3.17;;;;;;;16.93;100.00;102116.50;4732691;30;20446;-61
2022/07/21 23:41:13;;;;;;;10.55;3.08;;;;;;;16.94;100.00;102123.47;4735978;30;20488;-61
2022/07/21 23:43:39;;;;;;;10.45;2.67;;;;;;;16.96;100.00;102124.16;4746488;30;20060;-61
2022/07/21 23:46:06;;;;;;;9.70;3.05;;;;;;;16.95;100.00;102119.81;4748231;30;20071;-60
2022/07/21 23:48:34;;;;;;;9.80;2.60;;;;;;;16.96;100.00;102119.69;4741393;30;20051;-60